sensor_id;sensor_type;location;lat;lon;timestamp;P1;durP1;ratioP1;P2;durP2;ratioP2
75589;SDS011;64169;47.240;11.312;2023-07-20T00:00:22;9.73;;;4.85;;
75589;SDS011;64169;47.240;11.312;2023-07-20T00:02:51;13.20;;;5.57;;
75589;SDS011;64169;47.240;11.312;2023-07-20T00:05:16;12.00;;;5.03;;
75589;SDS011;64169;47.240;11.312;2023-07-20T00:07:46;14.88;;;7.72;;
75589;SDS011;64169;47.240;11.312;2023-07-20T00:10:12;10.88;;;5.43;;
75589;SDS011;64169;47.240;11.312;2023-07-20T00:12:38;10.18;;;5.03;;
75589;SDS011;64169;47.240;11.312;2023-07-20T00:15:04;12.05;;;5.35;;
75589;SDS011;64169;47.240;11.312;2023-07-20T00:17:29;10.50;;;5.32;;
75589;SDS011;64169;47.240;11.312;2023-07-20T00:19:55;11.70;;;5.10;;
75589;SDS011;64169;47.240;11.312;2023-07-20T00:22:20;10.02;;;3.90;;
75589;SDS011;64169;47.240;11.312;2023-07-20T00:24:46;10.15;;;4.80;;
75589;SDS011;64169;47.240;11.312;2023-07-20T00:27:11;13.52;;;5.22;;
75589;SDS011;64169;47.240;11.312;2023-07-20T00:29:36;10.43;;;4.50;;
75589;SDS011;64169;47.240;11.312;2023-07-20T00:32:02;11.80;;;5.10;;
75589;SDS011;64169;47.240;11.312;2023-07-20T00:34:30;11.40;;;4.65;;
75589;SDS011;64169;47.240;11.312;2023-07-20T00:36:56;10.93;;;4.93;;
75589;SDS011;64169;47.240;11.312;2023-07-20T00:39:21;11.68;;;5.28;;
75589;SDS011;64169;47.240;11.312;2023-07-20T00:41:47;10.43;;;4.75;;
75589;SDS011;64169;47.240;11.312;2023-07-20T00:44:12;11.38;;;4.97;;
75589;SDS011;64169;47.240;11.312;2023-07-20T00:46:37;9.85;;;4.57;;
75589;SDS011;64169;47.240;11.312;2023-07-20T00:49:03;9.27;;;4.43;;
75589;SDS011;64169;47.240;11.312;2023-07-20T00:51:29;12.40;;;4.93;;
75589;SDS011;64169;47.240;11.312;2023-07-20T00:53:54;9.32;;;4.90;;
75589;SDS011;64169;47.240;11.312;2023-07-20T00:56:20;10.93;;;4.38;;
75589;SDS011;64169;47.240;11.312;2023-07-20T00:58:47;11.43;;;5.18;;
75589;SDS011;64169;47.240;11.312;2023-07-20T01:01:12;10.25;;;4.28;;
75589;SDS011;64169;47.240;11.312;2023-07-20T01:03:38;10.63;;;4.80;;
75589;SDS011;64169;47.240;11.312;2023-07-20T01:11:40;10.20;;;4.57;;
75589;SDS011;64169;47.240;11.312;2023-07-20T01:14:08;8.55;;;4.15;;
75589;SDS011;64169;47.240;11.312;2023-07-20T01:16:34;10.45;;;4.75;;
75589;SDS011;64169;47.240;11.312;2023-07-20T01:18:59;9.68;;;4.05;;
75589;SDS011;64169;47.240;11.312;2023-07-20T01:21:26;9.02;;;4.82;;
75589;SDS011;64169;47.240;11.312;2023-07-20T01:29:22;8.18;;;3.83;;
75589;SDS011;64169;47.240;11.312;2023-07-20T01:32:14;8.77;;;4.38;;
75589;SDS011;64169;47.240;11.312;2023-07-20T01:34:41;10.48;;;4.53;;
75589;SDS011;64169;47.240;11.312;2023-07-20T01:37:07;11.45;;;4.88;;
75589;SDS011;64169;47.240;11.312;2023-07-20T01:39:34;9.30;;;4.30;;
75589;SDS011;64169;47.240;11.312;2023-07-20T01:42:00;8.63;;;4.18;;
75589;SDS011;64169;47.240;11.312;2023-07-20T01:44:27;10.30;;;3.88;;
75589;SDS011;64169;47.240;11.312;2023-07-20T01:46:53;12.18;;;5.03;;
75589;SDS011;64169;47.240;11.312;2023-07-20T01:49:18;11.98;;;5.00;;
75589;SDS011;64169;47.240;11.312;2023-07-20T01:51:43;14.75;;;4.57;;
75589;SDS011;64169;47.240;11.312;2023-07-20T01:54:09;10.73;;;4.95;;
75589;SDS011;64169;47.240;11.312;2023-07-20T01:56:34;12.32;;;5.05;;
75589;SDS011;64169;47.240;11.312;2023-07-20T01:59:00;8.85;;;4.70;;
75589;SDS011;64169;47.240;11.312;2023-07-20T02:01:25;13.60;;;5.18;;
75589;SDS011;64169;47.240;11.312;2023-07-20T02:03:53;11.30;;;4.82;;
75589;SDS011;64169;47.240;11.312;2023-07-20T02:06:19;11.48;;;4.90;;
75589;SDS011;64169;47.240;11.312;2023-07-20T02:08:44;9.70;;;4.47;;
75589;SDS011;64169;47.240;11.312;2023-07-20T02:11:10;9.57;;;4.32;;
75589;SDS011;64169;47.240;11.312;2023-07-20T02:13:35;10.10;;;4.93;;
75589;SDS011;64169;47.240;11.312;2023-07-20T02:16:01;8.55;;;4.13;;
75589;SDS011;64169;47.240;11.312;2023-07-20T02:18:26;11.02;;;5.25;;
75589;SDS011;64169;47.240;11.312;2023-07-20T02:20:52;11.00;;;5.10;;
75589;SDS011;64169;47.240;11.312;2023-07-20T02:23:19;10.10;;;4.85;;
75589;SDS011;64169;47.240;11.312;2023-07-20T02:25:44;10.80;;;5.40;;
75589;SDS011;64169;47.240;11.312;2023-07-20T02:28:10;10.80;;;4.85;;
75589;SDS011;64169;47.240;11.312;2023-07-20T02:30:38;14.52;;;5.28;;
75589;SDS011;64169;47.240;11.312;2023-07-20T02:33:04;14.65;;;4.68;;
75589;SDS011;64169;47.240;11.312;2023-07-20T02:35:31;11.40;;;4.88;;
75589;SDS011;64169;47.240;11.312;2023-07-20T02:37:57;10.70;;;4.63;;
75589;SDS011;64169;47.240;11.312;2023-07-20T02:40:22;12.75;;;5.40;;
75589;SDS011;64169;47.240;11.312;2023-07-20T02:42:48;12.27;;;5.32;;
75589;SDS011;64169;47.240;11.312;2023-07-20T02:45:13;11.40;;;5.18;;
75589;SDS011;64169;47.240;11.312;2023-07-20T02:47:39;10.88;;;5.43;;
75589;SDS011;64169;47.240;11.312;2023-07-20T02:50:06;11.73;;;5.95;;
75589;SDS011;64169;47.240;11.312;2023-07-20T02:52:32;11.05;;;5.68;;
75589;SDS011;64169;47.240;11.312;2023-07-20T02:54:58;12.40;;;5.07;;
75589;SDS011;64169;47.240;11.312;2023-07-20T02:57:23;10.40;;;5.28;;
75589;SDS011;64169;47.240;11.312;2023-07-20T02:59:48;10.98;;;5.63;;
75589;SDS011;64169;47.240;11.312;2023-07-20T03:02:14;16.85;;;5.53;;
75589;SDS011;64169;47.240;11.312;2023-07-20T03:04:40;11.57;;;5.25;;
75589;SDS011;64169;47.240;11.312;2023-07-20T03:07:05;13.25;;;6.40;;
75589;SDS011;64169;47.240;11.312;2023-07-20T03:09:32;13.30;;;5.72;;
75589;SDS011;64169;47.240;11.312;2023-07-20T03:11:57;14.20;;;5.72;;
75589;SDS011;64169;47.240;11.312;2023-07-20T03:14:22;11.70;;;5.47;;
75589;SDS011;64169;47.240;11.312;2023-07-20T03:16:48;14.07;;;6.22;;
75589;SDS011;64169;47.240;11.312;2023-07-20T03:19:14;13.07;;;6.18;;
75589;SDS011;64169;47.240;11.312;2023-07-20T03:21:40;12.65;;;5.90;;
75589;SDS011;64169;47.240;11.312;2023-07-20T03:24:07;12.15;;;5.60;;
75589;SDS011;64169;47.240;11.312;2023-07-20T03:26:33;12.52;;;6.00;;
75589;SDS011;64169;47.240;11.312;2023-07-20T03:29:00;11.43;;;5.75;;
75589;SDS011;64169;47.240;11.312;2023-07-20T03:31:25;11.57;;;5.85;;
75589;SDS011;64169;47.240;11.312;2023-07-20T03:33:50;11.13;;;5.38;;
75589;SDS011;64169;47.240;11.312;2023-07-20T03:36:16;12.95;;;5.50;;
75589;SDS011;64169;47.240;11.312;2023-07-20T03:38:42;13.85;;;6.10;;
75589;SDS011;64169;47.240;11.312;2023-07-20T03:41:07;11.98;;;5.35;;
75589;SDS011;64169;47.240;11.312;2023-07-20T03:43:34;10.93;;;5.63;;
75589;SDS011;64169;47.240;11.312;2023-07-20T03:45:59;11.77;;;5.25;;
75589;SDS011;64169;47.240;11.312;2023-07-20T03:48:25;12.07;;;5.20;;
75589;SDS011;64169;47.240;11.312;2023-07-20T03:50:51;10.93;;;5.47;;
75589;SDS011;64169;47.240;11.312;2023-07-20T03:53:18;11.13;;;5.10;;
75589;SDS011;64169;47.240;11.312;2023-07-20T03:55:47;12.25;;;5.10;;
75589;SDS011;64169;47.240;11.312;2023-07-20T03:58:13;9.73;;;4.78;;
75589;SDS011;64169;47.240;11.312;2023-07-20T04:00:39;12.07;;;5.25;;
75589;SDS011;64169;47.240;11.312;2023-07-20T04:03:05;10.20;;;4.97;;
75589;SDS011;64169;47.240;11.312;2023-07-20T04:05:31;11.85;;;5.38;;
75589;SDS011;64169;47.240;11.312;2023-07-20T04:07:56;11.20;;;5.55;;
75589;SDS011;64169;47.240;11.312;2023-07-20T04:10:22;13.68;;;6.25;;
75589;SDS011;64169;47.240;11.312;2023-07-20T04:12:47;13.38;;;5.90;;
75589;SDS011;64169;47.240;11.312;2023-07-20T04:15:13;13.57;;;5.63;;
75589;SDS011;64169;47.240;11.312;2023-07-20T04:17:39;12.13;;;5.35;;
75589;SDS011;64169;47.240;11.312;2023-07-20T04:20:05;10.77;;;5.78;;
75589;SDS011;64169;47.240;11.312;2023-07-20T04:22:31;12.23;;;5.82;;
75589;SDS011;64169;47.240;11.312;2023-07-20T04:24:57;13.45;;;5.50;;
75589;SDS011;64169;47.240;11.312;2023-07-20T04:27:22;10.52;;;5.00;;
75589;SDS011;64169;47.240;11.312;2023-07-20T04:29:48;11.55;;;5.65;;
75589;SDS011;64169;47.240;11.312;2023-07-20T04:32:13;9.85;;;5.55;;
75589;SDS011;64169;47.240;11.312;2023-07-20T04:34:39;11.48;;;5.43;;
75589;SDS011;64169;47.240;11.312;2023-07-20T04:37:04;12.75;;;5.13;;
75589;SDS011;64169;47.240;11.312;2023-07-20T04:39:30;11.35;;;5.45;;
75589;SDS011;64169;47.240;11.312;2023-07-20T04:41:55;11.27;;;5.40;;
75589;SDS011;64169;47.240;11.312;2023-07-20T04:44:21;9.80;;;5.13;;
75589;SDS011;64169;47.240;11.312;2023-07-20T04:46:46;12.15;;;5.03;;
75589;SDS011;64169;47.240;11.312;2023-07-20T04:49:12;15.02;;;5.63;;
75589;SDS011;64169;47.240;11.312;2023-07-20T04:51:38;11.55;;;4.50;;
75589;SDS011;64169;47.240;11.312;2023-07-20T04:54:04;11.93;;;5.50;;
75589;SDS011;64169;47.240;11.312;2023-07-20T04:56:29;11.20;;;5.03;;
75589;SDS011;64169;47.240;11.312;2023-07-20T04:58:55;11.75;;;4.82;;
75589;SDS011;64169;47.240;11.312;2023-07-20T05:01:20;11.55;;;5.55;;
75589;SDS011;64169;47.240;11.312;2023-07-20T05:03:46;12.45;;;5.70;;
75589;SDS011;64169;47.240;11.312;2023-07-20T05:06:11;10.65;;;5.00;;
75589;SDS011;64169;47.240;11.312;2023-07-20T05:08:37;11.80;;;5.00;;
75589;SDS011;64169;47.240;11.312;2023-07-20T05:11:04;10.68;;;4.32;;
75589;SDS011;64169;47.240;11.312;2023-07-20T05:13:29;10.93;;;5.43;;
75589;SDS011;64169;47.240;11.312;2023-07-20T05:15:55;9.20;;;4.22;;
75589;SDS011;64169;47.240;11.312;2023-07-20T05:18:20;12.00;;;5.07;;
75589;SDS011;64169;47.240;11.312;2023-07-20T05:20:49;11.07;;;5.07;;
75589;SDS011;64169;47.240;11.312;2023-07-20T05:23:18;10.23;;;5.18;;
75589;SDS011;64169;47.240;11.312;2023-07-20T05:25:47;10.13;;;4.43;;
75589;SDS011;64169;47.240;11.312;2023-07-20T05:28:13;10.43;;;4.68;;
75589;SDS011;64169;47.240;11.312;2023-07-20T05:30:38;9.52;;;4.95;;
75589;SDS011;64169;47.240;11.312;2023-07-20T05:33:05;9.48;;;4.70;;
75589;SDS011;64169;47.240;11.312;2023-07-20T05:35:30;11.23;;;4.88;;
75589;SDS011;64169;47.240;11.312;2023-07-20T05:37:56;11.02;;;4.72;;
75589;SDS011;64169;47.240;11.312;2023-07-20T05:40:21;9.70;;;4.82;;
75589;SDS011;64169;47.240;11.312;2023-07-20T05:42:47;9.68;;;4.97;;
75589;SDS011;64169;47.240;11.312;2023-07-20T05:45:14;11.05;;;5.18;;
75589;SDS011;64169;47.240;11.312;2023-07-20T05:47:40;12.43;;;5.40;;
75589;SDS011;64169;47.240;11.312;2023-07-20T05:50:06;12.50;;;5.70;;
75589;SDS011;64169;47.240;11.312;2023-07-20T05:52:32;11.10;;;5.90;;
75589;SDS011;64169;47.240;11.312;2023-07-20T05:54:57;10.75;;;5.10;;
75589;SDS011;64169;47.240;11.312;2023-07-20T05:57:23;14.77;;;5.68;;
75589;SDS011;64169;47.240;11.312;2023-07-20T05:59:48;11.35;;;5.82;;
75589;SDS011;64169;47.240;11.312;2023-07-20T06:02:14;10.88;;;5.45;;
75589;SDS011;64169;47.240;11.312;2023-07-20T06:04:39;10.55;;;6.00;;
75589;SDS011;64169;47.240;11.312;2023-07-20T06:07:05;12.18;;;5.43;;
75589;SDS011;64169;47.240;11.312;2023-07-20T06:09:32;15.73;;;5.32;;
75589;SDS011;64169;47.240;11.312;2023-07-20T06:11:57;10.73;;;5.03;;
75589;SDS011;64169;47.240;11.312;2023-07-20T06:14:23;10.50;;;5.07;;
75589;SDS011;64169;47.240;11.312;2023-07-20T06:16:48;10.07;;;4.88;;
75589;SDS011;64169;47.240;11.312;2023-07-20T06:19:14;11.48;;;5.68;;
75589;SDS011;64169;47.240;11.312;2023-07-20T06:21:40;11.02;;;5.40;;
75589;SDS011;64169;47.240;11.312;2023-07-20T06:24:05;9.60;;;4.78;;
75589;SDS011;64169;47.240;11.312;2023-07-20T06:26:31;9.70;;;4.78;;
75589;SDS011;64169;47.240;11.312;2023-07-20T06:29:03;10.60;;;5.32;;
75589;SDS011;64169;47.240;11.312;2023-07-20T06:31:28;13.13;;;5.13;;
75589;SDS011;64169;47.240;11.312;2023-07-20T06:33:54;9.75;;;5.13;;
75589;SDS011;64169;47.240;11.312;2023-07-20T06:36:19;9.77;;;4.32;;
75589;SDS011;64169;47.240;11.312;2023-07-20T06:38:45;8.77;;;4.22;;
75589;SDS011;64169;47.240;11.312;2023-07-20T06:41:10;12.10;;;4.80;;
75589;SDS011;64169;47.240;11.312;2023-07-20T06:43:36;10.80;;;4.93;;
75589;SDS011;64169;47.240;11.312;2023-07-20T06:46:01;9.95;;;4.45;;
75589;SDS011;64169;47.240;11.312;2023-07-20T06:48:26;8.98;;;4.05;;
75589;SDS011;64169;47.240;11.312;2023-07-20T06:50:52;9.20;;;4.18;;
75589;SDS011;64169;47.240;11.312;2023-07-20T06:53:18;10.90;;;4.13;;
75589;SDS011;64169;47.240;11.312;2023-07-20T06:55:44;9.13;;;4.30;;
75589;SDS011;64169;47.240;11.312;2023-07-20T06:58:10;9.30;;;4.47;;
75589;SDS011;64169;47.240;11.312;2023-07-20T07:00:38;10.95;;;4.20;;
75589;SDS011;64169;47.240;11.312;2023-07-20T07:03:04;8.88;;;4.25;;
75589;SDS011;64169;47.240;11.312;2023-07-20T07:05:29;10.80;;;4.70;;
75589;SDS011;64169;47.240;11.312;2023-07-20T07:07:54;8.73;;;4.20;;
75589;SDS011;64169;47.240;11.312;2023-07-20T07:10:20;9.05;;;4.57;;
75589;SDS011;64169;47.240;11.312;2023-07-20T07:12:45;11.57;;;4.82;;
75589;SDS011;64169;47.240;11.312;2023-07-20T07:15:11;11.02;;;6.28;;
75589;SDS011;64169;47.240;11.312;2023-07-20T07:17:36;9.77;;;5.13;;
75589;SDS011;64169;47.240;11.312;2023-07-20T07:20:02;12.40;;;5.45;;
75589;SDS011;64169;47.240;11.312;2023-07-20T07:22:28;12.35;;;5.43;;
75589;SDS011;64169;47.240;11.312;2023-07-20T07:24:54;12.45;;;5.15;;
75589;SDS011;64169;47.240;11.312;2023-07-20T07:27:20;12.68;;;6.35;;
75589;SDS011;64169;47.240;11.312;2023-07-20T07:29:45;11.80;;;5.68;;
75589;SDS011;64169;47.240;11.312;2023-07-20T07:32:11;11.57;;;5.60;;
75589;SDS011;64169;47.240;11.312;2023-07-20T07:34:37;9.65;;;5.32;;
75589;SDS011;64169;47.240;11.312;2023-07-20T07:37:03;11.93;;;5.50;;
75589;SDS011;64169;47.240;11.312;2023-07-20T07:39:29;12.93;;;6.10;;
75589;SDS011;64169;47.240;11.312;2023-07-20T07:41:55;12.07;;;5.55;;
75589;SDS011;64169;47.240;11.312;2023-07-20T07:44:20;8.77;;;5.07;;
75589;SDS011;64169;47.240;11.312;2023-07-20T07:46:46;10.20;;;5.40;;
75589;SDS011;64169;47.240;11.312;2023-07-20T07:49:12;9.38;;;5.22;;
75589;SDS011;64169;47.240;11.312;2023-07-20T07:51:37;8.57;;;3.90;;
75589;SDS011;64169;47.240;11.312;2023-07-20T07:54:02;7.15;;;3.50;;
75589;SDS011;64169;47.240;11.312;2023-07-20T07:56:29;9.40;;;3.88;;
75589;SDS011;64169;47.240;11.312;2023-07-20T07:58:54;9.70;;;3.67;;
75589;SDS011;64169;47.240;11.312;2023-07-20T08:01:20;10.43;;;3.83;;
75589;SDS011;64169;47.240;11.312;2023-07-20T08:03:45;9.10;;;4.07;;
75589;SDS011;64169;47.240;11.312;2023-07-20T08:06:12;8.55;;;3.60;;
75589;SDS011;64169;47.240;11.312;2023-07-20T08:08:38;8.88;;;3.53;;
75589;SDS011;64169;47.240;11.312;2023-07-20T08:11:04;7.43;;;3.33;;
75589;SDS011;64169;47.240;11.312;2023-07-20T08:13:29;6.95;;;3.85;;
75589;SDS011;64169;47.240;11.312;2023-07-20T08:15:55;7.18;;;3.22;;
75589;SDS011;64169;47.240;11.312;2023-07-20T08:18:20;8.50;;;3.72;;
75589;SDS011;64169;47.240;11.312;2023-07-20T08:20:46;9.63;;;3.70;;
75589;SDS011;64169;47.240;11.312;2023-07-20T08:23:12;7.00;;;3.58;;
75589;SDS011;64169;47.240;11.312;2023-07-20T08:25:39;7.97;;;3.40;;
75589;SDS011;64169;47.240;11.312;2023-07-20T08:28:08;7.35;;;3.20;;
75589;SDS011;64169;47.240;11.312;2023-07-20T08:33:07;8.85;;;3.03;;
75589;SDS011;64169;47.240;11.312;2023-07-20T08:35:33;8.38;;;3.15;;
75589;SDS011;64169;47.240;11.312;2023-07-20T08:37:58;8.30;;;3.92;;
75589;SDS011;64169;47.240;11.312;2023-07-20T08:40:24;7.20;;;2.83;;
75589;SDS011;64169;47.240;11.312;2023-07-20T08:42:49;6.88;;;3.15;;
75589;SDS011;64169;47.240;11.312;2023-07-20T08:45:15;7.50;;;3.45;;
75589;SDS011;64169;47.240;11.312;2023-07-20T08:47:42;8.15;;;3.03;;
75589;SDS011;64169;47.240;11.312;2023-07-20T08:50:09;7.10;;;3.35;;
75589;SDS011;64169;47.240;11.312;2023-07-20T08:52:35;8.57;;;3.58;;
75589;SDS011;64169;47.240;11.312;2023-07-20T08:55:00;6.70;;;3.00;;
75589;SDS011;64169;47.240;11.312;2023-07-20T08:57:28;7.68;;;3.05;;
75589;SDS011;64169;47.240;11.312;2023-07-20T08:59:54;9.35;;;3.45;;
75589;SDS011;64169;47.240;11.312;2023-07-20T09:02:20;7.07;;;2.47;;
75589;SDS011;64169;47.240;11.312;2023-07-20T09:04:47;5.95;;;2.65;;
75589;SDS011;64169;47.240;11.312;2023-07-20T09:07:12;8.13;;;3.20;;
75589;SDS011;64169;47.240;11.312;2023-07-20T09:09:40;7.97;;;3.45;;
75589;SDS011;64169;47.240;11.312;2023-07-20T09:12:12;9.85;;;3.83;;
75589;SDS011;64169;47.240;11.312;2023-07-20T09:14:38;8.30;;;3.17;;
75589;SDS011;64169;47.240;11.312;2023-07-20T09:17:04;7.00;;;3.15;;
75589;SDS011;64169;47.240;11.312;2023-07-20T09:19:29;6.80;;;3.28;;
75589;SDS011;64169;47.240;11.312;2023-07-20T09:21:55;7.13;;;3.38;;
75589;SDS011;64169;47.240;11.312;2023-07-20T09:24:21;8.68;;;3.20;;
75589;SDS011;64169;47.240;11.312;2023-07-20T09:26:48;7.47;;;3.30;;
75589;SDS011;64169;47.240;11.312;2023-07-20T09:29:13;7.82;;;3.28;;
75589;SDS011;64169;47.240;11.312;2023-07-20T09:31:39;6.90;;;2.75;;
75589;SDS011;64169;47.240;11.312;2023-07-20T09:34:05;9.10;;;3.63;;
75589;SDS011;64169;47.240;11.312;2023-07-20T09:36:38;7.75;;;3.30;;
75589;SDS011;64169;47.240;11.312;2023-07-20T09:39:03;7.68;;;2.72;;
75589;SDS011;64169;47.240;11.312;2023-07-20T09:41:29;9.60;;;2.95;;
75589;SDS011;64169;47.240;11.312;2023-07-20T09:43:55;7.47;;;3.33;;
75589;SDS011;64169;47.240;11.312;2023-07-20T09:46:20;7.25;;;3.20;;
75589;SDS011;64169;47.240;11.312;2023-07-20T09:48:53;7.00;;;2.90;;
75589;SDS011;64169;47.240;11.312;2023-07-20T09:51:20;7.72;;;2.70;;
75589;SDS011;64169;47.240;11.312;2023-07-20T09:56:16;7.47;;;2.75;;
75589;SDS011;64169;47.240;11.312;2023-07-20T09:58:43;7.00;;;2.88;;
75589;SDS011;64169;47.240;11.312;2023-07-20T10:01:10;6.68;;;2.95;;
75589;SDS011;64169;47.240;11.312;2023-07-20T10:03:36;7.43;;;2.92;;
75589;SDS011;64169;47.240;11.312;2023-07-20T10:06:04;6.38;;;2.95;;
75589;SDS011;64169;47.240;11.312;2023-07-20T10:08:33;8.27;;;3.38;;
75589;SDS011;64169;47.240;11.312;2023-07-20T10:11:01;7.00;;;2.70;;
75589;SDS011;64169;47.240;11.312;2023-07-20T10:13:27;6.05;;;2.53;;
75589;SDS011;64169;47.240;11.312;2023-07-20T10:15:58;7.15;;;3.10;;
75589;SDS011;64169;47.240;11.312;2023-07-20T10:21:23;5.85;;;2.53;;
75589;SDS011;64169;47.240;11.312;2023-07-20T10:23:48;6.85;;;3.00;;
75589;SDS011;64169;47.240;11.312;2023-07-20T10:26:14;8.63;;;2.55;;
75589;SDS011;64169;47.240;11.312;2023-07-20T10:28:39;6.68;;;2.78;;
75589;SDS011;64169;47.240;11.312;2023-07-20T10:31:07;7.47;;;2.78;;
75589;SDS011;64169;47.240;11.312;2023-07-20T10:33:33;8.85;;;2.70;;
75589;SDS011;64169;47.240;11.312;2023-07-20T10:36:03;5.85;;;2.60;;
75589;SDS011;64169;47.240;11.312;2023-07-20T10:38:52;6.25;;;2.72;;
75589;SDS011;64169;47.240;11.312;2023-07-20T10:43:46;7.22;;;2.42;;
75589;SDS011;64169;47.240;11.312;2023-07-20T10:46:12;7.15;;;3.00;;
75589;SDS011;64169;47.240;11.312;2023-07-20T10:48:59;6.70;;;2.58;;
75589;SDS011;64169;47.240;11.312;2023-07-20T10:51:27;6.00;;;2.33;;
75589;SDS011;64169;47.240;11.312;2023-07-20T10:53:54;5.88;;;2.30;;
75589;SDS011;64169;47.240;11.312;2023-07-20T10:56:22;7.53;;;3.15;;
75589;SDS011;64169;47.240;11.312;2023-07-20T10:58:48;6.70;;;2.63;;
75589;SDS011;64169;47.240;11.312;2023-07-20T11:01:14;5.60;;;2.33;;
75589;SDS011;64169;47.240;11.312;2023-07-20T11:03:41;5.82;;;2.38;;
75589;SDS011;64169;47.240;11.312;2023-07-20T11:11:33;5.60;;;2.10;;
75589;SDS011;64169;47.240;11.312;2023-07-20T11:14:22;6.35;;;2.40;;
75589;SDS011;64169;47.240;11.312;2023-07-20T11:16:50;6.57;;;2.67;;
75589;SDS011;64169;47.240;11.312;2023-07-20T11:19:23;5.70;;;2.40;;
75589;SDS011;64169;47.240;11.312;2023-07-20T11:21:50;6.55;;;2.42;;
75589;SDS011;64169;47.240;11.312;2023-07-20T11:24:17;6.47;;;2.60;;
75589;SDS011;64169;47.240;11.312;2023-07-20T11:26:43;6.35;;;2.70;;
75589;SDS011;64169;47.240;11.312;2023-07-20T11:29:09;5.32;;;2.28;;
75589;SDS011;64169;47.240;11.312;2023-07-20T11:31:36;6.45;;;2.58;;
75589;SDS011;64169;47.240;11.312;2023-07-20T11:34:02;5.60;;;2.38;;
75589;SDS011;64169;47.240;11.312;2023-07-20T11:36:28;5.60;;;2.45;;
75589;SDS011;64169;47.240;11.312;2023-07-20T11:38:53;18.73;;;4.28;;
75589;SDS011;64169;47.240;11.312;2023-07-20T11:41:19;6.20;;;2.70;;
75589;SDS011;64169;47.240;11.312;2023-07-20T11:43:45;6.07;;;2.20;;
75589;SDS011;64169;47.240;11.312;2023-07-20T11:46:10;5.55;;;2.40;;
75589;SDS011;64169;47.240;11.312;2023-07-20T11:48:36;5.85;;;2.60;;
75589;SDS011;64169;47.240;11.312;2023-07-20T11:51:01;5.05;;;2.10;;
75589;SDS011;64169;47.240;11.312;2023-07-20T11:53:27;6.82;;;2.08;;
75589;SDS011;64169;47.240;11.312;2023-07-20T11:55:52;6.15;;;2.30;;
75589;SDS011;64169;47.240;11.312;2023-07-20T11:58:18;8.30;;;2.33;;
75589;SDS011;64169;47.240;11.312;2023-07-20T12:00:45;6.88;;;2.33;;
75589;SDS011;64169;47.240;11.312;2023-07-20T12:03:11;7.75;;;2.97;;
75589;SDS011;64169;47.240;11.312;2023-07-20T12:05:40;7.05;;;2.42;;
75589;SDS011;64169;47.240;11.312;2023-07-20T12:08:06;6.32;;;2.50;;
75589;SDS011;64169;47.240;11.312;2023-07-20T12:10:31;6.03;;;2.40;;
75589;SDS011;64169;47.240;11.312;2023-07-20T12:13:03;6.03;;;2.83;;
75589;SDS011;64169;47.240;11.312;2023-07-20T12:15:29;6.07;;;2.25;;
75589;SDS011;64169;47.240;11.312;2023-07-20T12:17:58;6.45;;;2.33;;
75589;SDS011;64169;47.240;11.312;2023-07-20T12:23:15;6.43;;;2.45;;
75589;SDS011;64169;47.240;11.312;2023-07-20T12:25:43;6.28;;;2.28;;
75589;SDS011;64169;47.240;11.312;2023-07-20T12:28:19;5.10;;;2.08;;
75589;SDS011;64169;47.240;11.312;2023-07-20T12:30:44;6.13;;;1.98;;
75589;SDS011;64169;47.240;11.312;2023-07-20T12:33:11;5.45;;;2.30;;
75589;SDS011;64169;47.240;11.312;2023-07-20T12:35:40;6.80;;;2.30;;
75589;SDS011;64169;47.240;11.312;2023-07-20T12:38:06;5.50;;;2.10;;
75589;SDS011;64169;47.240;11.312;2023-07-20T12:40:31;6.13;;;2.33;;
75589;SDS011;64169;47.240;11.312;2023-07-20T12:42:57;5.97;;;2.13;;
75589;SDS011;64169;47.240;11.312;2023-07-20T12:45:23;5.18;;;2.22;;
75589;SDS011;64169;47.240;11.312;2023-07-20T12:47:49;6.55;;;2.33;;
75589;SDS011;64169;47.240;11.312;2023-07-20T12:50:14;7.05;;;2.30;;
75589;SDS011;64169;47.240;11.312;2023-07-20T12:52:40;6.10;;;2.33;;
75589;SDS011;64169;47.240;11.312;2023-07-20T12:55:06;5.93;;;2.22;;
75589;SDS011;64169;47.240;11.312;2023-07-20T12:57:35;6.43;;;2.15;;
75589;SDS011;64169;47.240;11.312;2023-07-20T13:00:01;6.38;;;2.20;;
75589;SDS011;64169;47.240;11.312;2023-07-20T13:02:32;4.63;;;1.73;;
75589;SDS011;64169;47.240;11.312;2023-07-20T13:04:57;7.75;;;2.60;;
75589;SDS011;64169;47.240;11.312;2023-07-20T13:07:30;5.95;;;1.90;;
75589;SDS011;64169;47.240;11.312;2023-07-20T13:09:56;5.85;;;2.40;;
75589;SDS011;64169;47.240;11.312;2023-07-20T13:12:21;5.45;;;2.20;;
75589;SDS011;64169;47.240;11.312;2023-07-20T13:14:47;5.00;;;2.00;;
75589;SDS011;64169;47.240;11.312;2023-07-20T13:17:12;6.95;;;2.03;;
75589;SDS011;64169;47.240;11.312;2023-07-20T13:19:38;6.60;;;2.30;;
75589;SDS011;64169;47.240;11.312;2023-07-20T13:22:03;5.72;;;2.28;;
75589;SDS011;64169;47.240;11.312;2023-07-20T13:24:29;7.80;;;2.22;;
75589;SDS011;64169;47.240;11.312;2023-07-20T13:26:54;6.03;;;2.00;;
75589;SDS011;64169;47.240;11.312;2023-07-20T13:29:20;6.70;;;1.92;;
75589;SDS011;64169;47.240;11.312;2023-07-20T13:31:45;5.72;;;2.22;;
75589;SDS011;64169;47.240;11.312;2023-07-20T13:34:11;5.82;;;2.28;;
75589;SDS011;64169;47.240;11.312;2023-07-20T13:36:36;7.07;;;2.30;;
75589;SDS011;64169;47.240;11.312;2023-07-20T13:39:02;5.38;;;2.13;;
75589;SDS011;64169;47.240;11.312;2023-07-20T13:41:29;7.68;;;2.35;;
75589;SDS011;64169;47.240;11.312;2023-07-20T13:43:57;5.72;;;2.15;;
75589;SDS011;64169;47.240;11.312;2023-07-20T13:46:22;6.45;;;2.13;;
75589;SDS011;64169;47.240;11.312;2023-07-20T13:48:48;6.60;;;2.55;;
75589;SDS011;64169;47.240;11.312;2023-07-20T13:51:14;6.82;;;1.92;;
75589;SDS011;64169;47.240;11.312;2023-07-20T13:53:39;8.10;;;2.25;;
75589;SDS011;64169;47.240;11.312;2023-07-20T13:56:05;5.72;;;2.20;;
75589;SDS011;64169;47.240;11.312;2023-07-20T13:58:32;5.95;;;2.55;;
75589;SDS011;64169;47.240;11.312;2023-07-20T14:00:57;5.75;;;2.20;;
75589;SDS011;64169;47.240;11.312;2023-07-20T14:03:23;6.78;;;2.10;;
75589;SDS011;64169;47.240;11.312;2023-07-20T14:05:49;7.00;;;2.25;;
75589;SDS011;64169;47.240;11.312;2023-07-20T14:08:15;5.93;;;2.65;;
75589;SDS011;64169;47.240;11.312;2023-07-20T14:10:40;6.38;;;2.80;;
75589;SDS011;64169;47.240;11.312;2023-07-20T14:13:06;5.80;;;2.22;;
75589;SDS011;64169;47.240;11.312;2023-07-20T14:15:31;5.13;;;2.15;;
75589;SDS011;64169;47.240;11.312;2023-07-20T14:17:56;6.15;;;2.00;;
75589;SDS011;64169;47.240;11.312;2023-07-20T14:20:22;5.28;;;2.20;;
75589;SDS011;64169;47.240;11.312;2023-07-20T14:22:47;6.03;;;2.00;;
75589;SDS011;64169;47.240;11.312;2023-07-20T14:25:13;6.90;;;2.13;;
75589;SDS011;64169;47.240;11.312;2023-07-20T14:27:38;5.97;;;2.30;;
75589;SDS011;64169;47.240;11.312;2023-07-20T14:30:04;6.07;;;1.73;;
75589;SDS011;64169;47.240;11.312;2023-07-20T14:32:30;6.15;;;2.20;;
75589;SDS011;64169;47.240;11.312;2023-07-20T14:34:56;5.50;;;2.00;;
75589;SDS011;64169;47.240;11.312;2023-07-20T14:37:21;6.45;;;1.98;;
75589;SDS011;64169;47.240;11.312;2023-07-20T14:39:47;6.03;;;1.90;;
75589;SDS011;64169;47.240;11.312;2023-07-20T14:42:13;6.25;;;2.30;;
75589;SDS011;64169;47.240;11.312;2023-07-20T14:44:38;4.95;;;2.20;;
75589;SDS011;64169;47.240;11.312;2023-07-20T14:47:04;5.22;;;1.90;;
75589;SDS011;64169;47.240;11.312;2023-07-20T14:49:29;5.57;;;2.00;;
75589;SDS011;64169;47.240;11.312;2023-07-20T14:51:55;6.00;;;1.80;;